Time;durP1;ratioP1;P1;durP2;ratioP2;P2;SDS_P1;SDS_P2;PMS_P1;PMS_P2;Temp;Humidity;BMP_temperature;BMP_pressure;BME280_temperature;BME280_humidity;BME280_pressure;Samples;Min_cycle;Max_cycle;Signal;HPM_P1;HPM_P2
2022/02/24 00:01:30;;;;;;;;;;;;;;;;;;5097439;28;19908;-70
2022/02/24 00:03:56;;;;;;;;;;;;;;;;;;5078806;28;19908;-70
2022/02/24 00:06:24;;;;;;;;;;;;;;;;;;5079096;28;19912;-69
2022/02/24 00:08:50;;;;;;;;;;;;;;;;;;5097377;28;19916;-70
2022/02/24 00:11:16;;;;;;;;;;;;;;;;;;5096775;28;19942;-70
2022/02/24 00:13:42;;;;;;;;;;;;;;;;;;5078808;28;19971;-70
2022/02/24 00:16:08;;;;;;;;;;;;;;;;;;5097186;28;19915;-69
2022/02/24 00:18:34;;;;;;;;;;;;;;;;;;5078520;28;19908;-70
2022/02/24 00:21:00;;;;;;;;;;;;;;;;;;5097103;28;20390;-70
2022/02/24 00:23:26;;;;;;;;;;;;;;;;;;5097016;28;19915;-69
2022/02/24 00:25:52;;;;;;;;;;;;;;;;;;5078417;28;20282;-70
2022/02/24 00:28:18;;;;;;;;;;;;;;;;;;5079001;28;19908;-69
2022/02/24 00:30:44;;;;;;;;;;;;;;;;;;5078764;28;19915;-70
2022/02/24 00:33:09;;;;;;;;;;;;;;;;;;5096680;28;19908;-70
2022/02/24 00:35:35;;;;;;;;;;;;;;;;;;5078621;28;19909;-70
2022/02/24 00:38:03;;;;;;;;;;;;;;;;;;5096846;28;19966;-70
2022/02/24 00:40:29;;;;;;;;;;;;;;;;;;5096295;28;20421;-70
2022/02/24 00:42:55;;;;;;;;;;;;;;;;;;5078499;28;19908;-69
2022/02/24 00:45:21;;;;;;;;;;;;;;;;;;5077749;28;19958;-70
2022/02/24 00:47:47;;;;;;;;;;;;;;;;;;5096446;28;20346;-71
2022/02/24 00:50:13;;;;;;;;;;;;;;;;;;5096596;28;20003;-70
2022/02/24 00:52:39;;;;;;;;;;;;;;;;;;5096081;28;20349;-70
2022/02/24 00:55:05;;;;;;;;;;;;;;;;;;5078223;28;19920;-70
2022/02/24 00:57:31;;;;;;;;;;;;;;;;;;5096652;28;20334;-71
2022/02/24 00:59:57;;;;;;;;;;;;;;;;;;5077842;28;19908;-70
2022/02/24 01:02:23;;;;;;;;;;;;;;;;;;5096423;28;19916;-70
2022/02/24 01:04:49;;;;;;;;;;;;;;;;;;5096450;28;20376;-70
2022/02/24 01:07:15;;;;;;;;;;;;;;;;;;5095903;28;19915;-70
2022/02/24 01:09:41;;;;;;;;;;;;;;;;;;5078287;28;19908;-70
2022/02/24 01:12:08;;;;;;;;;;;;;;;;;;5096069;28;19931;-70
2022/02/24 01:14:34;;;;;;;;;;;;;;;;;;5095490;28;19920;-70
2022/02/24 01:17:00;;;;;;;;;;;;;;;;;;5095957;28;19914;-70
2022/02/24 01:19:26;;;;;;;;;;;;;;;;;;5077828;28;19908;-70
2022/02/24 01:21:52;;;;;;;;;;;;;;;;;;5077339;28;19919;-70
2022/02/24 01:24:18;;;;;;;;;;;;;;;;;;5077665;28;19995;-69
2022/02/24 01:26:44;;;;;;;;;;;;;;;;;;5095798;28;19959;-70
2022/02/24 01:29:10;;;;;;;;;;;;;;;;;;5077233;28;20419;-70
2022/02/24 01:31:36;;;;;;;;;;;;;;;;;;5077568;28;19912;-70
2022/02/24 01:34:02;;;;;;;;;;;;;;;;;;5077436;28;19927;-70
2022/02/24 01:36:29;;;;;;;;;;;;;;;;;;5077147;28;19916;-70
2022/02/24 01:38:55;;;;;;;;;;;;;;;;;;5077490;28;19961;-70
2022/02/24 01:41:21;;;;;;;;;;;;;;;;;;5095562;28;19919;-70
2022/02/24 01:43:47;;;;;;;;;;;;;;;;;;5077006;28;19961;-71
2022/02/24 01:46:13;;;;;;;;;;;;;;;;;;5095985;28;19969;-70
2022/02/24 01:48:39;;;;;;;;;;;;;;;;;;5095014;28;19912;-70
2022/02/24 01:51:05;;;;;;;;;;;;;;;;;;5095343;28;19908;-70
2022/02/24 01:53:31;;;;;;;;;;;;;;;;;;5095208;28;20316;-70
2022/02/24 01:55:57;;;;;;;;;;;;;;;;;;5094934;28;19908;-70
2022/02/24 01:58:23;;;;;;;;;;;;;;;;;;5076220;28;19912;-71
2022/02/24 02:00:50;;;;;;;;;;;;;;;;;;5077003;28;19947;-70
2022/02/24 02:03:16;;;;;;;;;;;;;;;;;;5094706;28;19955;-70
2022/02/24 02:05:42;;;;;;;;;;;;;;;;;;5095234;28;20413;-70
2022/02/24 02:08:08;;;;;;;;;;;;;;;;;;5095184;28;20011;-70
2022/02/24 02:10:34;;;;;;;;;;;;;;;;;;5094699;28;19953;-70
2022/02/24 02:13:00;;;;;;;;;;;;;;;;;;5094925;28;19947;-70
2022/02/24 02:15:26;;;;;;;;;;;;;;;;;;5094835;28;19974;-70
2022/02/24 02:17:52;;;;;;;;;;;;;;;;;;5094473;28;19916;-70
2022/02/24 02:20:20;;;;;;;;;;;;;;;;;;5094751;28;20006;-70
2022/02/24 02:22:46;;;;;;;;;;;;;;;;;;5094772;28;19958;-70
2022/02/24 02:25:14;;;;;;;;;;;;;;;;;;5094290;28;19912;-70
2022/02/24 02:27:40;;;;;;;;;;;;;;;;;;5076539;28;19953;-70
2022/02/24 02:30:06;;;;;;;;;;;;;;;;;;5094614;28;19908;-70
2022/02/24 02:32:32;;;;;;;;;;;;;;;;;;5094259;28;19912;-70
2022/02/24 02:34:58;;;;;;;;;;;;;;;;;;5094481;28;20297;-70
2022/02/24 02:37:24;;;;;;;;;;;;;;;;;;5076253;28;19914;-70
2022/02/24 02:39:50;;;;;;;;;;;;;;;;;;5094188;28;19999;-70
2022/02/24 02:42:16;;;;;;;;;;;;;;;;;;5076299;28;19939;-70
2022/02/24 02:44:42;;;;;;;;;;;;;;;;;;5076228;28;20377;-70
2022/02/24 02:47:08;;;;;;;;;;;;;;;;;;5093944;28;19909;-70
2022/02/24 02:49:34;;;;;;;;;;;;;;;;;;5076197;28;19998;-70
2022/02/24 02:51:59;;;;;;;;;;;;;;;;;;5093896;28;20360;-70
2022/02/24 02:54:25;;;;;;;;;;;;;;;;;;5094235;28;20014;-70
2022/02/24 02:56:52;;;;;;;;;;;;;;;;;;5094175;28;19912;-70
2022/02/24 02:59:19;;;;;;;;;;;;;;;;;;5075571;28;19908;-70
2022/02/24 03:01:45;;;;;;;;;;;;;;;;;;5094120;28;20012;-70
2022/02/24 03:04:11;;;;;;;;;;;;;;;;;;5075984;28;20043;-70
2022/02/24 03:06:37;;;;;;;;;;;;;;;;;;5075531;28;19908;-69
2022/02/24 03:09:03;;;;;;;;;;;;;;;;;;5093951;28;19908;-69
2022/02/24 03:11:29;;;;;;;;;;;;;;;;;;5094078;28;20378;-70
2022/02/24 03:13:55;;;;;;;;;;;;;;;;;;5093463;28;19924;-70
2022/02/24 03:16:21;;;;;;;;;;;;;;;;;;5093880;28;19908;-70
2022/02/24 03:18:47;;;;;;;;;;;;;;;;;;5093972;28;19915;-70
2022/02/24 03:21:13;;;;;;;;;;;;;;;;;;5075437;28;20371;-70
2022/02/24 03:23:39;;;;;;;;;;;;;;;;;;5075743;28;19940;-70
2022/02/24 03:26:05;;;;;;;;;;;;;;;;;;5093869;28;19908;-70
2022/02/24 03:28:31;;;;;;;;;;;;;;;;;;5093561;28;19915;-70
2022/02/24 03:30:57;;;;;;;;;;;;;;;;;;5075712;28;20024;-70
2022/02/24 03:33:23;;;;;;;;;;;;;;;;;;5075611;28;19944;-70
2022/02/24 03:35:49;;;;;;;;;;;;;;;;;;5093519;28;19997;-69
2022/02/24 03:38:15;;;;;;;;;;;;;;;;;;5075900;28;20390;-70
2022/02/24 03:40:41;;;;;;;;;;;;;;;;;;5093666;28;19908;-70
2022/02/24 03:43:07;;;;;;;;;;;;;;;;;;5093398;28;19908;-70
2022/02/24 03:45:33;;;;;;;;;;;;;;;;;;5093696;28;19991;-70
2022/02/24 03:47:59;;;;;;;;;;;;;;;;;;5093647;28;19909;-70
2022/02/24 03:50:25;;;;;;;;;;;;;;;;;;5093255;28;19908;-69
2022/02/24 03:52:51;;;;;;;;;;;;;;;;;;5075572;28;20378;-70
2022/02/24 03:55:17;;;;;;;;;;;;;;;;;;5075054;28;19916;-70
2022/02/24 03:57:43;;;;;;;;;;;;;;;;;;5093594;28;19908;-70
2022/02/24 04:00:09;;;;;;;;;;;;;;;;;;5093592;28;19962;-70
2022/02/24 04:02:35;;;;;;;;;;;;;;;;;;5093465;28;20280;-70
2022/02/24 04:05:01;;;;;;;;;;;;;;;;;;5093703;28;20451;-69
2022/02/24 04:07:27;;;;;;;;;;;;;;;;;;5075423;28;19909;-69
2022/02/24 04:09:53;;;;;;;;;;;;;;;;;;5093364;28;19916;-69
2022/02/24 04:12:19;;;;;;;;;;;;;;;;;;5093605;28;20360;-69
2022/02/24 04:14:45;;;;;;;;;;;;;;;;;;5093297;28;20001;-69
2022/02/24 04:17:11;;;;;;;;;;;;;;;;;;5075008;28;20299;-70
2022/02/24 04:19:37;;;;;;;;;;;;;;;;;;5093647;28;19919;-70
2022/02/24 04:22:03;;;;;;;;;;;;;;;;;;5095825;28;19913;-70
2022/02/24 04:24:29;;;;;;;;;;;;;;;;;;5096674;28;20013;-69
2022/02/24 04:26:55;;;;;;;;;;;;;;;;;;5097007;28;19908;-69
2022/02/24 04:29:21;;;;;;;;;;;;;;;;;;5097126;28;20403;-70
2022/02/24 04:31:47;;;;;;;;;;;;;;;;;;5096583;28;19915;-70
2022/02/24 04:34:12;;;;;;;;;;;;;;;;;;5096826;28;19920;-70
2022/02/24 04:36:38;;;;;;;;;;;;;;;;;;5078651;28;19909;-70
2022/02/24 04:39:04;;;;;;;;;;;;;;;;;;5096353;28;19908;-70
2022/02/24 04:41:30;;;;;;;;;;;;;;;;;;5078528;28;19909;-70
2022/02/24 04:43:56;;;;;;;;;;;;;;;;;;5078485;28;20390;-70
2022/02/24 04:46:22;;;;;;;;;;;;;;;;;;5078094;28;19969;-70
2022/02/24 04:48:48;;;;;;;;;;;;;;;;;;5096583;28;20288;-70
2022/02/24 04:51:14;;;;;;;;;;;;;;;;;;5096669;28;19908;-69
2022/02/24 04:53:40;;;;;;;;;;;;;;;;;;5095986;28;19924;-70
2022/02/24 04:56:06;;;;;;;;;;;;;;;;;;5096387;28;19908;-70
2022/02/24 04:58:32;;;;;;;;;;;;;;;;;;5095994;28;19912;-70
2022/02/24 05:00:58;;;;;;;;;;;;;;;;;;5078154;28;19969;-69
2022/02/24 05:03:24;;;;;;;;;;;;;;;;;;5078055;28;19915;-69
2022/02/24 05:05:50;;;;;;;;;;;;;;;;;;5077656;28;19908;-69
2022/02/24 05:08:16;;;;;;;;;;;;;;;;;;5077883;28;19990;-68
2022/02/24 05:10:42;;;;;;;;;;;;;;;;;;5096163;28;19908;-69
2022/02/24 05:13:08;;;;;;;;;;;;;;;;;;5077349;28;20250;-68
2022/02/24 05:15:34;;;;;;;;;;;;;;;;;;5096029;28;19954;-69
2022/02/24 05:18:00;;;;;;;;;;;;;;;;;;5096141;28;19908;-69
2022/02/24 05:20:26;;;;;;;;;;;;;;;;;;5095600;28;20383;-69
2022/02/24 05:22:52;;;;;;;;;;;;;;;;;;5095824;28;19916;-70
2022/02/24 05:25:18;;;;;;;;;;;;;;;;;;5095825;28;20269;-72
2022/02/24 05:27:44;;;;;;;;;;;;;;;;;;5095336;28;19961;-70
2022/02/24 05:30:10;;;;;;;;;;;;;;;;;;5095726;28;20284;-70
2022/02/24 05:32:36;;;;;;;;;;;;;;;;;;5077572;28;19909;-70
2022/02/24 05:35:02;;;;;;;;;;;;;;;;;;5095254;28;19920;-71
2022/02/24 05:37:28;;;;;;;;;;;;;;;;;;5095897;28;20272;-71
2022/02/24 05:39:54;;;;;;;;;;;;;;;;;;5095482;28;19915;-71
2022/02/24 05:42:20;;;;;;;;;;;;;;;;;;5076965;28;19909;-71
2022/02/24 05:44:46;;;;;;;;;;;;;;;;;;5077307;28;19912;-71
2022/02/24 05:47:12;;;;;;;;;;;;;;;;;;5095583;28;19908;-71
2022/02/24 05:49:38;;;;;;;;;;;;;;;;;;5076818;28;20257;-72
2022/02/24 05:52:05;;;;;;;;;;;;;;;;;;5095282;28;19948;-71
2022/02/24 05:54:31;;;;;;;;;;;;;;;;;;5095289;28;19916;-72
2022/02/24 05:56:57;;;;;;;;;;;;;;;;;;5076636;28;20364;-71
2022/02/24 05:59:23;;;;;;;;;;;;;;;;;;5095177;28;19916;-72
2022/02/24 06:01:49;;;;;;;;;;;;;;;;;;5068606;28;19908;-72
2022/02/24 06:04:15;;;;;;;;;;;;;;;;;;5092179;28;20382;-72
2022/02/24 06:06:41;;;;;;;;;;;;;;;;;;5095010;28;19991;-72
2022/02/24 06:09:07;;;;;;;;;;;;;;;;;;5094360;28;19944;-71
2022/02/24 06:11:34;;;;;;;;;;;;;;;;;;5094107;28;19955;-73
2022/02/24 06:14:00;;;;;;;;;;;;;;;;;;5091412;28;19923;-72
2022/02/24 06:16:26;;;;;;;;;;;;;;;;;;5076839;28;19955;-71
2022/02/24 06:18:52;;;;;;;;;;;;;;;;;;5075874;28;19916;-72
2022/02/24 06:21:18;;;;;;;;;;;;;;;;;;5081725;28;20360;-71
2022/02/24 06:23:44;;;;;;;;;;;;;;;;;;5054373;28;20008;-72
2022/02/24 06:26:10;;;;;;;;;;;;;;;;;;5085474;28;20261;-72
2022/02/24 06:28:36;;;;;;;;;;;;;;;;;;5092572;28;20041;-73
2022/02/24 06:31:02;;;;;;;;;;;;;;;;;;5092001;28;19951;-72
2022/02/24 06:33:28;;;;;;;;;;;;;;;;;;5091942;28;20011;-72
2022/02/24 06:35:54;;;;;;;;;;;;;;;;;;5092872;28;20390;-73
2022/02/24 06:38:20;;;;;;;;;;;;;;;;;;5093841;28;19943;-71
2022/02/24 06:40:46;;;;;;;;;;;;;;;;;;5075937;28;19987;-70
2022/02/24 06:43:12;;;;;;;;;;;;;;;;;;5091941;28;20006;-72
2022/02/24 06:45:38;;;;;;;;;;;;;;;;;;5093320;28;19977;-73
2022/02/24 06:48:04;;;;;;;;;;;;;;;;;;5074118;28;19908;-73
2022/02/24 06:50:30;;;;;;;;;;;;;;;;;;5094019;28;19912;-73
2022/02/24 06:52:56;;;;;;;;;;;;;;;;;;5091384;28;19915;-72
2022/02/24 06:55:22;;;;;;;;;;;;;;;;;;5073830;28;19926;-72
2022/02/24 06:57:48;;;;;;;;;;;;;;;;;;5067981;28;19912;-74
2022/02/24 07:00:14;;;;;;;;;;;;;;;;;;5063484;28;19915;-73
2022/02/24 07:02:40;;;;;;;;;;;;;;;;;;5075087;28;19912;-72
2022/02/24 07:05:06;;;;;;;;;;;;;;;;;;5074828;28;19915;-72
2022/02/24 07:07:34;;;;;;;;;;;;;;;;;;5093616;28;19915;-72
2022/02/24 07:10:00;;;;;;;;;;;;;;;;;;5092069;28;19908;-72
2022/02/24 07:12:26;;;;;;;;;;;;;;;;;;5092982;28;19931;-72
2022/02/24 07:14:52;;;;;;;;;;;;;;;;;;5092836;28;19994;-72
2022/02/24 07:17:18;;;;;;;;;;;;;;;;;;5091627;28;19912;-73
2022/02/24 07:19:44;;;;;;;;;;;;;;;;;;5089670;28;19915;-71
2022/02/24 07:22:10;;;;;;;;;;;;;;;;;;5092949;28;20291;-71
2022/02/24 07:24:36;;;;;;;;;;;;;;;;;;5093047;28;19908;-72
2022/02/24 07:27:02;;;;;;;;;;;;;;;;;;5074473;28;20320;-72
2022/02/24 07:29:28;;;;;;;;;;;;;;;;;;5073503;28;19950;-71
2022/02/24 07:31:54;;;;;;;;;;;;;;;;;;5089534;28;19912;-73
2022/02/24 07:34:20;;;;;;;;;;;;;;;;;;5092344;28;20022;-73
2022/02/24 07:36:46;;;;;;;;;;;;;;;;;;5092135;28;19908;-73
2022/02/24 07:39:13;;;;;;;;;;;;;;;;;;5091988;28;20307;-74
2022/02/24 07:41:39;;;;;;;;;;;;;;;;;;5092463;28;19908;-72
2022/02/24 07:44:05;;;;;;;;;;;;;;;;;;5074696;28;20000;-73
2022/02/24 07:46:31;;;;;;;;;;;;;;;;;;5073108;28;19940;-74
2022/02/24 07:48:57;;;;;;;;;;;;;;;;;;5090559;28;20416;-74
2022/02/24 07:51:23;;;;;;;;;;;;;;;;;;5091208;28;19961;-74
2022/02/24 07:53:49;;;;;;;;;;;;;;;;;;5072607;28;20470;-74
2022/02/24 07:56:15;;;;;;;;;;;;;;;;;;5091937;28;19977;-73
2022/02/24 07:58:41;;;;;;;;;;;;;;;;;;5094505;28;20402;-73
2022/02/24 08:01:07;;;;;;;;;;;;;;;;;;5076561;28;19915;-72
2022/02/24 08:03:33;;;;;;;;;;;;;;;;;;5095655;28;19915;-72
2022/02/24 08:06:00;;;;;;;;;;;;;;;;;;5078133;28;19919;-72
2022/02/24 08:08:29;;;;;;;;;;;;;;;;;;5080455;28;19931;-71
2022/02/24 08:10:55;;;;;;;;;;;;;;;;;;5076951;28;20272;-70
2022/02/24 08:13:21;;;;;;;;;;;;;;;;;;5094213;28;19951;-71
2022/02/24 08:15:47;;;;;;;;;;;;;;;;;;5077618;28;20309;-72
2022/02/24 08:18:13;;;;;;;;;;;;;;;;;;5096392;28;19946;-72
2022/02/24 08:20:39;;;;;;;;;;;;;;;;;;5076394;28;19953;-74
2022/02/24 08:23:05;;;;;;;;;;;;;;;;;;5077675;28;20015;-72
2022/02/24 08:25:31;;;;;;;;;;;;;;;;;;5075457;28;20003;-72
2022/02/24 08:27:57;;;;;;;;;;;;;;;;;;5076165;28;19908;-72
2022/02/24 08:30:23;;;;;;;;;;;;;;;;;;5075717;28;19909;-72
2022/02/24 08:32:49;;;;;;;;;;;;;;;;;;5076007;28;19908;-72
2022/02/24 08:35:15;;;;;;;;;;;;;;;;;;5075815;28;20002;-73
2022/02/24 08:37:44;;;;;;;;;;;;;;;;;;5075613;28;19908;-72
2022/02/24 08:40:10;;;;;;;;;;;;;;;;;;5094129;28;20312;-72
2022/02/24 08:42:36;;;;;;;;;;;;;;;;;;5094770;28;19909;-72
2022/02/24 08:45:02;;;;;;;;;;;;;;;;;;5077183;28;19919;-71
2022/02/24 08:47:28;;;;;;;;;;;;;;;;;;5077691;28;20245;-72
2022/02/24 08:49:54;;;;;;;;;;;;;;;;;;5095878;28;19915;-71
2022/02/24 08:52:20;;;;;;;;;;;;;;;;;;5095589;28;20391;-73
2022/02/24 08:54:46;;;;;;;;;;;;;;;;;;5095373;28;19927;-71
2022/02/24 08:57:12;;;;;;;;;;;;;;;;;;5077699;28;19909;-73
2022/02/24 08:59:38;;;;;;;;;;;;;;;;;;5095250;28;19908;-72
2022/02/24 09:02:04;;;;;;;;;;;;;;;;;;5075736;28;20004;-72
2022/02/24 09:04:30;;;;;;;;;;;;;;;;;;5093741;28;19954;-73
2022/02/24 09:06:56;;;;;;;;;;;;;;;;;;5092963;28;20032;-73
2022/02/24 09:09:25;;;;;;;;;;;;;;;;;;5094061;28;20051;-72
2022/02/24 09:11:51;;;;;;;;;;;;;;;;;;5093104;28;19912;-72
2022/02/24 09:14:17;;;;;;;;;;;;;;;;;;5094094;28;20065;-71
2022/02/24 09:16:44;;;;;;;;;;;;;;;;;;5094118;28;20285;-72
2022/02/24 09:19:10;;;;;;;;;;;;;;;;;;5095051;28;19952;-72
2022/02/24 09:21:36;;;;;;;;;;;;;;;;;;5094428;28;19958;-72
2022/02/24 09:24:02;;;;;;;;;;;;;;;;;;5077142;28;20279;-72
2022/02/24 09:26:28;;;;;;;;;;;;;;;;;;5095252;28;19915;-72
2022/02/24 09:28:54;;;;;;;;;;;;;;;;;;5077238;28;19908;-72
2022/02/24 09:31:20;;;;;;;;;;;;;;;;;;5095525;28;20361;-72
2022/02/24 09:33:46;;;;;;;;;;;;;;;;;;5092203;28;19912;-72
2022/02/24 09:36:12;;;;;;;;;;;;;;;;;;5095221;28;19908;-75
2022/02/24 09:39:45;;;;;;;;;;;;;;;;;;5110731;27;19913;-70
2022/02/24 09:42:11;;;;;;;;;;;;;;;;;;5109447;28;19931;-75
2022/02/24 09:44:37;;;;;;;;;;;;;;;;;;5109395;28;19908;-71
2022/02/24 09:47:03;;;;;;;;;;;;;;;;;;5110555;28;19916;-74
2022/02/24 09:49:29;;;;;;;;;;;;;;;;;;5109741;28;19957;-73
2022/02/24 09:53:52;;;;;;;;;;;;;;;;;;5110669;27;19916;-73
2022/02/24 09:56:18;;;;;;;;;;;;;;;;;;5109864;28;19943;-74
2022/02/24 09:58:45;;;;;;;;;;;;;;;;;;5109840;28;19915;-74
2022/02/24 10:05:19;;;;;;;;;;;;;;;;;;5090745;28;19919;-72
2022/02/24 10:07:46;;;;;;;;;;;;;;;;;;5076802;28;20391;-72
2022/02/24 10:10:12;;;;;;;;;;;;;;;;;;5088754;28;19913;-72
2022/02/24 10:13:25;;;;;;;;;;;;;;;;;;5110358;27;20303;-72
2022/02/24 10:15:51;;;;;;;;;;;;;;;;;;5109210;28;19999;-72
2022/02/24 10:18:45;;;;;;;;;;;;;;;;;;5118114;27;19916;-73
2022/02/24 10:23:37;;;;;;;;;;;;;;;;;;5087886;27;19920;-71
2022/02/24 10:28:51;;;;;;;;;;;;;;;;;;5089899;27;20407;-73
2022/02/24 10:33:15;;;;;;;;;;;;;;;;;;5110711;27;20382;-73
2022/02/24 10:35:43;;;;;;;;;;;;;;;;;;5109416;28;20435;-72
2022/02/24 10:38:09;;;;;;;;;;;;;;;;;;5108797;28;19908;-76
2022/02/24 10:41:38;;;;;;;;;;;;;;;;;;5152226;27;19918;-72
2022/02/24 10:44:04;;;;;;;;;;;;;;;;;;5149335;27;19917;-74
2022/02/24 10:49:44;;;;;;;;;;;;;;;;;;5089667;27;19916;-71
2022/02/24 10:54:43;;;;;;;;;;;;;;;;;;5087972;27;19982;-72
2022/02/24 10:57:09;;;;;;;;;;;;;;;;;;5089197;28;19966;-73
2022/02/24 10:59:35;;;;;;;;;;;;;;;;;;5089427;28;19912;-74
2022/02/24 11:02:02;;;;;;;;;;;;;;;;;;5087752;28;19915;-73
2022/02/24 11:04:29;;;;;;;;;;;;;;;;;;5088978;28;20001;-72
2022/02/24 11:06:55;;;;;;;;;;;;;;;;;;5089025;28;19935;-73
2022/02/24 11:10:19;;;;;;;;;;;;;;;;;;5110893;27;19922;-73
2022/02/24 11:12:45;;;;;;;;;;;;;;;;;;5110324;28;19995;-76
2022/02/24 11:15:11;;;;;;;;;;;;;;;;;;5109347;28;19984;-74
2022/02/24 11:20:03;;;;;;;;;;;;;;;;;;5090473;27;19995;-73
2022/02/24 11:22:29;;;;;;;;;;;;;;;;;;5089553;28;20385;-72
2022/02/24 11:27:18;;;;;;;;;;;;;;;;;;5110935;27;20287;-72
2022/02/24 11:31:51;;;;;;;;;;;;;;;;;;5089940;27;19912;-74
2022/02/24 11:34:17;;;;;;;;;;;;;;;;;;5089365;28;19913;-72
2022/02/24 11:36:43;;;;;;;;;;;;;;;;;;5091034;28;19936;-74
2022/02/24 11:39:09;;;;;;;;;;;;;;;;;;5090764;28;19908;-76
2022/02/24 11:44:04;;;;;;;;;;;;;;;;;;5089260;27;19919;-74
2022/02/24 11:48:59;;;;;;;;;;;;;;;;;;5090895;27;19913;-74
2022/02/24 11:51:25;;;;;;;;;;;;;;;;;;5090925;28;19951;-73
2022/02/24 11:53:53;;;;;;;;;;;;;;;;;;5089828;28;20380;-74
2022/02/24 11:56:19;;;;;;;;;;;;;;;;;;5090584;28;19915;-73
2022/02/24 11:58:46;;;;;;;;;;;;;;;;;;5088473;28;20333;-73
2022/02/24 12:03:32;;;;;;;;;;;;;;;;;;5090727;27;19919;-72
2022/02/24 12:05:58;;;;;;;;;;;;;;;;;;5090313;28;19951;-71
2022/02/24 12:08:24;;;;;;;;;;;;;;;;;;5090540;28;20289;-72
2022/02/24 12:10:50;;;;;;;;;;;;;;;;;;5090836;28;19992;-72
2022/02/24 12:14:05;;;;;;;;;;;;;;;;;;5111402;27;19916;-73
2022/02/24 12:16:31;;;;;;;;;;;;;;;;;;5109699;28;20391;-72
2022/02/24 12:18:57;;;;;;;;;;;;;;;;;;5109421;28;19908;-73
2022/02/24 12:22:46;;;;;;;;;;;;;;;;;;5070516;28;20287;-74
2022/02/24 12:25:13;;;;;;;;;;;;;;;;;;5070644;28;19913;-73
2022/02/24 12:27:39;;;;;;;;;;;;;;;;;;5070758;28;19913;-71
2022/02/24 12:30:05;;;;;;;;;;;;;;;;;;5070597;28;19948;-72
2022/02/24 12:32:31;;;;;;;;;;;;;;;;;;5070839;28;19913;-75
2022/02/24 12:34:57;;;;;;;;;;;;;;;;;;5069197;28;19915;-74
2022/02/24 12:37:23;;;;;;;;;;;;;;;;;;5070039;28;19920;-74
2022/02/24 12:41:15;;;;;;;;;;;;;;;;;;5112031;27;19916;-72
2022/02/24 12:43:41;;;;;;;;;;;;;;;;;;5108849;28;19912;-72
2022/02/24 12:48:11;;;;;;;;;;;;;;;;;;5107171;27;20388;-72
2022/02/24 12:50:38;;;;;;;;;;;;;;;;;;5108953;28;19977;-71
2022/02/24 12:53:04;;;;;;;;;;;;;;;;;;5111182;28;19958;-72
2022/02/24 12:57:39;;;;;;;;;;;;;;;;;;5090772;28;19913;-72
2022/02/24 13:00:05;;;;;;;;;;;;;;;;;;5089301;28;19955;-72
2022/02/24 13:02:31;;;;;;;;;;;;;;;;;;5089361;28;19952;-72
2022/02/24 13:04:57;;;;;;;;;;;;;;;;;;5088668;28;19996;-73
2022/02/24 13:10:46;;;;;;;;;;;;;;;;;;5110902;27;19932;-72
2022/02/24 13:13:12;;;;;;;;;;;;;;;;;;5111285;28;19919;-75
2022/02/24 13:15:38;;;;;;;;;;;;;;;;;;5111391;28;19908;-74
2022/02/24 13:18:04;;;;;;;;;;;;;;;;;;5110077;28;19908;-73
2022/02/24 13:20:32;;;;;;;;;;;;;;;;;;5111350;28;19915;-72
2022/02/24 13:22:58;;;;;;;;;;;;;;;;;;5111027;28;19908;-71
2022/02/24 13:25:24;;;;;;;;;;;;;;;;;;5106124;28;20421;-73
2022/02/24 13:27:50;;;;;;;;;;;;;;;;;;5109480;28;19915;-75
2022/02/24 13:30:16;;;;;;;;;;;;;;;;;;5111011;28;20379;-73
2022/02/24 13:33:44;;;;;;;;;;;;;;;;;;5090764;27;19919;-72
2022/02/24 13:36:10;;;;;;;;;;;;;;;;;;5090961;28;19913;-72
2022/02/24 13:38:38;;;;;;;;;;;;;;;;;;5090664;28;19915;-73
2022/02/24 13:42:04;;;;;;;;;;;;;;;;;;5110367;27;19912;-72
2022/02/24 13:44:30;;;;;;;;;;;;;;;;;;5110736;28;19912;-74
2022/02/24 13:46:58;;;;;;;;;;;;;;;;;;5110615;28;19977;-74
2022/02/24 13:49:24;;;;;;;;;;;;;;;;;;5109777;28;19908;-73
2022/02/24 13:51:50;;;;;;;;;;;;;;;;;;5111297;28;20014;-75
2022/02/24 13:54:17;;;;;;;;;;;;;;;;;;5110888;28;19978;-74
2022/02/24 13:56:43;;;;;;;;;;;;;;;;;;5110580;28;19963;-74
2022/02/24 13:59:09;;;;;;;;;;;;;;;;;;5110847;28;19941;-73
2022/02/24 14:01:35;;;;;;;;;;;;;;;;;;5109370;28;19916;-73
2022/02/24 14:04:01;;;;;;;;;;;;;;;;;;5109778;28;19908;-73
2022/02/24 14:06:27;;;;;;;;;;;;;;;;;;5110256;28;19953;-72
2022/02/24 14:08:59;;;;;;;;;;;;;;;;;;5110799;28;19915;-72
2022/02/24 14:11:25;;;;;;;;;;;;;;;;;;5109762;28;19908;-72
2022/02/24 14:16:07;;;;;;;;;;;;;;;;;;5111382;27;19923;-72
2022/02/24 14:18:33;;;;;;;;;;;;;;;;;;5111609;28;20368;-71
2022/02/24 14:20:59;;;;;;;;;;;;;;;;;;5111068;28;19908;-72
2022/02/24 14:27:05;;;;;;;;;;;;;;;;;;5112450;27;19916;-72
2022/02/24 14:29:31;;;;;;;;;;;;;;;;;;5109957;28;20034;-72
2022/02/24 14:31:57;;;;;;;;;;;;;;;;;;5110239;28;20367;-73
2022/02/24 14:34:23;;;;;;;;;;;;;;;;;;5110375;28;19908;-74
2022/02/24 14:36:49;;;;;;;;;;;;;;;;;;5109754;28;19930;-72
2022/02/24 14:39:15;;;;;;;;;;;;;;;;;;5111305;28;20002;-72
2022/02/24 14:41:41;;;;;;;;;;;;;;;;;;5111410;28;19961;-72
2022/02/24 14:44:07;;;;;;;;;;;;;;;;;;5109796;28;20364;-73
2022/02/24 14:46:33;;;;;;;;;;;;;;;;;;5111352;28;19938;-73
2022/02/24 14:48:59;;;;;;;;;;;;;;;;;;5109983;28;19986;-73
2022/02/24 14:51:26;;;;;;;;;;;;;;;;;;5110585;28;19934;-72
2022/02/24 14:53:52;;;;;;;;;;;;;;;;;;5111779;28;19912;-73
2022/02/24 14:56:18;;;;;;;;;;;;;;;;;;5110752;28;19914;-73
2022/02/24 15:00:47;;;;;;;;;;;;;;;;;;5132249;27;20010;-72
2022/02/24 15:03:13;;;;;;;;;;;;;;;;;;5131974;28;20367;-72
2022/02/24 15:08:12;;;;;;;;;;;;;;;;;;5111822;27;19926;-72
2022/02/24 15:11:12;;;;;;;;;;;;;;;;;;5050757;28;19919;-72
2022/02/24 15:13:38;;;;;;;;;;;;;;;;;;5066524;28;19971;-72
2022/02/24 15:16:04;;;;;;;;;;;;;;;;;;5051283;28;20309;-71
2022/02/24 15:18:30;;;;;;;;;;;;;;;;;;5050682;28;19908;-71
2022/02/24 15:21:48;;;;;;;;;;;;;;;;;;5091958;27;19912;-71
2022/02/24 15:24:14;;;;;;;;;;;;;;;;;;5091110;28;19913;-71
2022/02/24 15:26:39;;;;;;;;;;;;;;;;;;5090288;28;19938;-71
2022/02/24 15:29:05;;;;;;;;;;;;;;;;;;5089915;28;20474;-71
2022/02/24 15:31:31;;;;;;;;;;;;;;;;;;5089507;28;19909;-71
2022/02/24 15:33:57;;;;;;;;;;;;;;;;;;5089917;28;20343;-71
2022/02/24 15:36:24;;;;;;;;;;;;;;;;;;5091090;28;19987;-72
2022/02/24 15:38:50;;;;;;;;;;;;;;;;;;5089429;28;19908;-71
2022/02/24 15:43:48;;;;;;;;;;;;;;;;;;5111869;27;19916;-71
2022/02/24 15:46:27;;;;;;;;;;;;;;;;;;5111465;27;19916;-71
2022/02/24 15:48:53;;;;;;;;;;;;;;;;;;5110365;28;19919;-73
2022/02/24 15:54:05;;;;;;;;;;;;;;;;;;5111512;27;20298;-71
2022/02/24 15:56:31;;;;;;;;;;;;;;;;;;5110421;28;19915;-72
2022/02/24 16:01:15;;;;;;;;;;;;;;;;;;5111479;27;19922;-71
2022/02/24 16:03:41;;;;;;;;;;;;;;;;;;5111642;28;19912;-71
2022/02/24 16:06:07;;;;;;;;;;;;;;;;;;5110389;28;19941;-71
2022/02/24 16:09:11;;;;;;;;;;;;;;;;;;5153283;27;20357;-72
2022/02/24 16:11:37;;;;;;;;;;;;;;;;;;5152955;27;20375;-71
2022/02/24 16:17:03;;;;;;;;;;;;;;;;;;5091483;27;19912;-73
2022/02/24 16:21:38;;;;;;;;;;;;;;;;;;5111551;27;20372;-73
2022/02/24 16:27:03;;;;;;;;;;;;;;;;;;5091982;27;19934;-72
2022/02/24 16:29:29;;;;;;;;;;;;;;;;;;5090956;28;19966;-72
2022/02/24 16:31:56;;;;;;;;;;;;;;;;;;5091176;28;20319;-72
2022/02/24 16:34:23;;;;;;;;;;;;;;;;;;5091175;28;20426;-72
2022/02/24 16:36:49;;;;;;;;;;;;;;;;;;5090736;28;19942;-73
2022/02/24 16:39:15;;;;;;;;;;;;;;;;;;5091217;28;20310;-73
2022/02/24 16:41:41;;;;;;;;;;;;;;;;;;5089533;28;20360;-72
2022/02/24 16:44:07;;;;;;;;;;;;;;;;;;5089750;28;19908;-73
2022/02/24 16:46:33;;;;;;;;;;;;;;;;;;5089665;28;19923;-74
2022/02/24 16:48:59;;;;;;;;;;;;;;;;;;5089349;28;19932;-74
2022/02/24 16:51:25;;;;;;;;;;;;;;;;;;5089691;28;19908;-72
2022/02/24 16:53:51;;;;;;;;;;;;;;;;;;5090834;28;20262;-72
2022/02/24 16:56:17;;;;;;;;;;;;;;;;;;5090338;28;19908;-72
2022/02/24 16:58:43;;;;;;;;;;;;;;;;;;5089614;28;20323;-73
2022/02/24 17:01:09;;;;;;;;;;;;;;;;;;5089438;28;20396;-72
2022/02/24 17:03:35;;;;;;;;;;;;;;;;;;5090328;28;19908;-72
2022/02/24 17:06:01;;;;;;;;;;;;;;;;;;5090503;28;20334;-72
2022/02/24 17:08:27;;;;;;;;;;;;;;;;;;5089128;28;19990;-72
2022/02/24 17:10:53;;;;;;;;;;;;;;;;;;5090116;28;19966;-72
2022/02/24 17:13:19;;;;;;;;;;;;;;;;;;5088945;28;19908;-72
2022/02/24 17:15:48;;;;;;;;;;;;;;;;;;5090474;28;19908;-73
2022/02/24 17:18:14;;;;;;;;;;;;;;;;;;5088843;28;19909;-72
2022/02/24 17:20:40;;;;;;;;;;;;;;;;;;5090325;28;19916;-72
2022/02/24 17:23:05;;;;;;;;;;;;;;;;;;5090553;28;19931;-73
2022/02/24 17:25:31;;;;;;;;;;;;;;;;;;5097896;28;19924;-73
2022/02/24 17:27:57;;;;;;;;;;;;;;;;;;5110514;28;19997;-72
2022/02/24 17:30:24;;;;;;;;;;;;;;;;;;5092352;28;19958;-73
2022/02/24 17:32:50;;;;;;;;;;;;;;;;;;5091896;28;19997;-73
2022/02/24 17:35:15;;;;;;;;;;;;;;;;;;5110375;28;19909;-73
2022/02/24 17:37:41;;;;;;;;;;;;;;;;;;5082562;28;19918;-73
2022/02/24 17:40:07;;;;;;;;;;;;;;;;;;5078274;28;20264;-73
2022/02/24 17:42:33;;;;;;;;;;;;;;;;;;5078530;28;19934;-73
2022/02/24 17:44:59;;;;;;;;;;;;;;;;;;5096276;28;19912;-73
2022/02/24 17:47:25;;;;;;;;;;;;;;;;;;5078468;28;20011;-73
2022/02/24 17:49:51;;;;;;;;;;;;;;;;;;5096743;28;19955;-73
2022/02/24 17:52:17;;;;;;;;;;;;;;;;;;5096251;28;19908;-72
2022/02/24 17:54:43;;;;;;;;;;;;;;;;;;5096539;28;20003;-73
2022/02/24 17:57:10;;;;;;;;;;;;;;;;;;5096714;28;19940;-73